Etusivu
METAR-TAF:

METAR-TAF

Lentoasemat :

Jimmy Lake, Saskatchewan, Kanada

Leveyspiiri: 54-55N, Pituuspiiri: 109-57W, korkeus merenpinnasta: 658 m

Tämänhetkinen sää

Tämä raportti tehtiin 1 tunti ja 14 minuuttia sitten, kello 11.00 UTC
Tuuli 2 kn koillisesta
Lämpötila -13°C
Kosteus 85%
Ilmanpaine 1014 hPa
Näkyvyys: 14.5 km
Hajonneita pilviä 5600 ft:n korkeudessa

METAR: CWHN 131100Z AUTO 04002KT 9SM BKN056 M13/M15 A2993 RMK SLP182

Aika: 06:14 (12:14 UTC)


TAF: puuttuu

Säähavainnot ja -ennusteet yli 4000 lentoasemalta (METAR- ja TAF-raportit).

Käytössä olevat sääasemat on merkitty karttaan keltaisilla ja punaisilla pisteillä.

Aseta hiiri pisteen päälle nähdäksesi sääaseman nimen.

Klikkaa sitten nähdäksesi säähavainnot ja -ennusteet.

Kartan vaihtaminen: klikkaa mustalla rastilla varustettuja vihreitä pisteitä, niin voit zoomata sisään; viivalla varustettua vihreää pistettä, niin voit zoomata ulos tai vihreitä nuolia, niin pääset viereisille kartoille.


METAR-TAF: